JES3810 SAEZ-SBGL
Flight info
| Callsign | JES3810 |
|---|---|
| Flight time | 2h 32m |
| Altitude | 35000 |
| Route | DORVO1E DORVO UN857 AKNUB |
| Aircraft | A21N/M-SDE2FGHIM1RWXYZ/LB1 |
Departure
| Time | 2026-04-29 21:13 |
|---|---|
| Airport | Ezeiza International Airport - Ministro Pistarini (SAEZ) |
Arrival
| Time | 2026-04-29 23:45 |
|---|---|
| Airport | Rio Galeão – Tom Jobim International Airport (SBGL) |
| Time | Latitude | Longitude | Altitude | Speed | Heading |
|---|---|---|---|---|---|
| 2026-04-29 20:48 | -34.81647 | -58.54382 | 71 ft | 0 kts | 14° |
| 2026-04-29 21:03 | -34.81644 | -58.54380 | 75 ft | 4 kts | 7° |
| 2026-04-29 21:03 | -34.81662 | -58.54377 | 70 ft | 4 kts | 349° |
| 2026-04-29 21:03 | -34.81689 | -58.54374 | 69 ft | 4 kts | 2° |
| 2026-04-29 21:04 | -34.81715 | -58.54378 | 68 ft | 4 kts | 18° |
| 2026-04-29 21:04 | -34.81739 | -58.54391 | 72 ft | 4 kts | 38° |
| 2026-04-29 21:04 | -34.81756 | -58.54414 | 68 ft | 4 kts | 74° |
| 2026-04-29 21:04 | -34.81758 | -58.54428 | 67 ft | 0 kts | 96° |
| 2026-04-29 21:06 | -34.81762 | -58.54385 | 73 ft | 9 kts | 96° |
| 2026-04-29 21:07 | -34.81774 | -58.54272 | 75 ft | 17 kts | 97° |
| 2026-04-29 21:07 | -34.81790 | -58.54132 | 75 ft | 16 kts | 99° |
| 2026-04-29 21:07 | -34.81789 | -58.54047 | 67 ft | 14 kts | 77° |
| 2026-04-29 21:07 | -34.81733 | -58.53918 | 69 ft | 12 kts | 60° |
| 2026-04-29 21:08 | -34.81705 | -58.53798 | 72 ft | 18 kts | 101° |
| 2026-04-29 21:08 | -34.81787 | -58.53703 | 69 ft | 14 kts | 149° |
| 2026-04-29 21:08 | -34.81895 | -58.53628 | 67 ft | 21 kts | 148° |
| 2026-04-29 21:08 | -34.81934 | -58.53476 | 73 ft | 22 kts | 104° |
| 2026-04-29 21:09 | -34.81977 | -58.53271 | 72 ft | 27 kts | 104° |
| 2026-04-29 21:09 | -34.82006 | -58.53122 | 70 ft | 26 kts | 103° |
| 2026-04-29 21:09 | -34.82045 | -58.52924 | 82 ft | 23 kts | 104° |
| 2026-04-29 21:09 | -34.82085 | -58.52730 | 72 ft | 23 kts | 104° |
| 2026-04-29 21:10 | -34.82123 | -58.52547 | 71 ft | 22 kts | 104° |
| 2026-04-29 21:10 | -34.82157 | -58.52373 | 68 ft | 20 kts | 103° |
| 2026-04-29 21:10 | -34.82187 | -58.52210 | 71 ft | 19 kts | 103° |
| 2026-04-29 21:10 | -34.82217 | -58.52063 | 72 ft | 17 kts | 104° |
| 2026-04-29 21:11 | -34.82245 | -58.51929 | 75 ft | 15 kts | 103° |
| 2026-04-29 21:11 | -34.82272 | -58.51810 | 67 ft | 13 kts | 119° |
| 2026-04-29 21:11 | -34.82376 | -58.51802 | 68 ft | 20 kts | 191° |
| 2026-04-29 21:11 | -34.82507 | -58.51886 | 85 ft | 24 kts | 246° |
| 2026-04-29 21:12 | -34.82479 | -58.52155 | 83 ft | 50 kts | 282° |
| 2026-04-29 21:12 | -34.82358 | -58.52824 | 85 ft | 110 kts | 282° |
| 2026-04-29 21:12 | -34.82158 | -58.53934 | 83 ft | 156 kts | 281° |
| 2026-04-29 21:12 | -34.81918 | -58.55275 | 542 ft | 160 kts | 281° |
| 2026-04-29 21:13 | -34.81674 | -58.56584 | 1135 ft | 159 kts | 280° |
| 2026-04-29 21:13 | -34.81448 | -58.57900 | 1723 ft | 160 kts | 278° |
| 2026-04-29 21:13 | -34.81220 | -58.59263 | 2015 ft | 173 kts | 279° |
| 2026-04-29 21:13 | -34.81213 | -58.60775 | 2145 ft | 188 kts | 247° |
| 2026-04-29 21:14 | -34.81961 | -58.62156 | 2303 ft | 205 kts | 232° |
| 2026-04-29 21:14 | -34.82955 | -58.63535 | 2415 ft | 230 kts | 230° |
| 2026-04-29 21:14 | -34.84077 | -58.65028 | 2818 ft | 245 kts | 229° |
| 2026-04-29 21:14 | -34.85237 | -58.66575 | 3456 ft | 250 kts | 229° |
| 2026-04-29 21:15 | -34.86403 | -58.68159 | 4213 ft | 251 kts | 229° |
| 2026-04-29 21:15 | -34.87667 | -58.69635 | 4920 ft | 255 kts | 213° |
| 2026-04-29 21:15 | -34.89313 | -58.70458 | 5596 ft | 261 kts | 192° |
| 2026-04-29 21:15 | -34.91153 | -58.70438 | 5865 ft | 270 kts | 169° |
| 2026-04-29 21:16 | -34.92849 | -58.69444 | 5918 ft | 277 kts | 144° |
| 2026-04-29 21:16 | -34.94280 | -58.67816 | 6444 ft | 284 kts | 137° |
| 2026-04-29 21:16 | -34.95582 | -58.65988 | 7093 ft | 289 kts | 131° |
| 2026-04-29 21:16 | -34.96738 | -58.63949 | 7719 ft | 295 kts | 124° |
| 2026-04-29 21:17 | -34.97695 | -58.61706 | 8327 ft | 302 kts | 117° |
| 2026-04-29 21:17 | -34.98437 | -58.59242 | 8941 ft | 309 kts | 109° |
| 2026-04-29 21:17 | -34.98911 | -58.56662 | 9531 ft | 316 kts | 101° |
| 2026-04-29 21:17 | -34.99106 | -58.53962 | 10023 ft | 326 kts | 93° |
| 2026-04-29 21:18 | -34.99020 | -58.51098 | 10141 ft | 348 kts | 88° |
| 2026-04-29 21:18 | -34.98908 | -58.48064 | 10261 ft | 368 kts | 90° |
| 2026-04-29 21:18 | -34.98843 | -58.44872 | 10387 ft | 386 kts | 90° |
| 2026-04-29 21:18 | -34.98796 | -58.41538 | 10681 ft | 398 kts | 90° |
| 2026-04-29 21:19 | -34.98748 | -58.38144 | 11190 ft | 402 kts | 90° |
| 2026-04-29 21:19 | -34.98690 | -58.34712 | 11721 ft | 407 kts | 90° |
| 2026-04-29 21:19 | -34.98618 | -58.31247 | 12260 ft | 411 kts | 90° |
| 2026-04-29 21:19 | -34.98536 | -58.27748 | 12814 ft | 415 kts | 89° |
| 2026-04-29 21:20 | -34.98449 | -58.24212 | 13369 ft | 419 kts | 89° |
| 2026-04-29 21:20 | -34.98360 | -58.20654 | 13890 ft | 423 kts | 89° |
| 2026-04-29 21:20 | -34.98270 | -58.17055 | 14379 ft | 426 kts | 89° |
| 2026-04-29 21:20 | -34.98181 | -58.13433 | 14855 ft | 429 kts | 89° |
| 2026-04-29 21:21 | -34.98091 | -58.09782 | 15330 ft | 433 kts | 89° |
| 2026-04-29 21:21 | -34.98000 | -58.06101 | 15801 ft | 436 kts | 89° |
| 2026-04-29 21:21 | -34.97908 | -58.02393 | 16264 ft | 439 kts | 89° |
| 2026-04-29 21:21 | -34.97814 | -57.98656 | 16714 ft | 442 kts | 89° |
| 2026-04-29 21:22 | -34.97586 | -57.94905 | 17156 ft | 446 kts | 81° |
| 2026-04-29 21:22 | -34.96870 | -57.91231 | 17591 ft | 448 kts | 70° |
| 2026-04-29 21:22 | -34.95651 | -57.87732 | 18011 ft | 449 kts | 59° |
| 2026-04-29 21:22 | -34.93966 | -57.84529 | 18417 ft | 449 kts | 49° |
| 2026-04-29 21:23 | -34.91981 | -57.81589 | 18790 ft | 450 kts | 47° |
| 2026-04-29 21:23 | -34.89977 | -57.78648 | 19168 ft | 453 kts | 47° |
| 2026-04-29 21:23 | -34.87960 | -57.75679 | 19547 ft | 456 kts | 47° |
| 2026-04-29 21:23 | -34.85903 | -57.72656 | 19913 ft | 458 kts | 47° |
| 2026-04-29 21:24 | -34.83867 | -57.69662 | 20272 ft | 461 kts | 47° |
| 2026-04-29 21:24 | -34.81809 | -57.66647 | 20638 ft | 464 kts | 46° |
| 2026-04-29 21:24 | -34.79742 | -57.63625 | 21001 ft | 466 kts | 46° |
| 2026-04-29 21:24 | -34.77662 | -57.60580 | 21366 ft | 469 kts | 47° |
| 2026-04-29 21:25 | -34.75574 | -57.57526 | 21723 ft | 472 kts | 47° |
| 2026-04-29 21:25 | -34.73473 | -57.54449 | 22085 ft | 474 kts | 46° |
| 2026-04-29 21:25 | -34.71355 | -57.51352 | 22448 ft | 477 kts | 46° |
| 2026-04-29 21:25 | -34.69224 | -57.48240 | 22801 ft | 480 kts | 46° |
| 2026-04-29 21:26 | -34.67081 | -57.45122 | 23147 ft | 482 kts | 46° |
| 2026-04-29 21:26 | -34.64917 | -57.41987 | 23496 ft | 485 kts | 46° |
| 2026-04-29 21:26 | -34.62743 | -57.38843 | 23780 ft | 487 kts | 46° |
| 2026-04-29 21:26 | -34.60559 | -57.35685 | 24066 ft | 490 kts | 46° |
| 2026-04-29 21:27 | -34.59117 | -57.33597 | 24239 ft | 491 kts | 46° |
| 2026-04-29 21:27 | -34.56167 | -57.29319 | 24608 ft | 495 kts | 46° |
| 2026-04-29 21:27 | -34.53955 | -57.26111 | 24882 ft | 497 kts | 46° |
| 2026-04-29 21:27 | -34.51728 | -57.22895 | 25152 ft | 499 kts | 46° |
| 2026-04-29 21:28 | -34.49485 | -57.19663 | 25416 ft | 502 kts | 46° |
| 2026-04-29 21:28 | -34.47235 | -57.16427 | 25680 ft | 504 kts | 46° |
| 2026-04-29 21:28 | -34.44971 | -57.13170 | 25929 ft | 506 kts | 46° |
| 2026-04-29 21:28 | -34.42701 | -57.09902 | 26189 ft | 508 kts | 46° |
| 2026-04-29 21:29 | -34.40414 | -57.06609 | 26447 ft | 510 kts | 46° |
| 2026-04-29 21:29 | -34.38127 | -57.03316 | 26698 ft | 513 kts | 46° |
| 2026-04-29 21:29 | -34.35827 | -57.00011 | 26951 ft | 515 kts | 46° |
| 2026-04-29 21:29 | -34.33515 | -56.96695 | 27201 ft | 517 kts | 46° |
| 2026-04-29 21:30 | -34.31190 | -56.93363 | 27453 ft | 519 kts | 46° |
| 2026-04-29 21:30 | -34.28857 | -56.90021 | 27689 ft | 521 kts | 46° |
| 2026-04-29 21:30 | -34.26514 | -56.86672 | 27965 ft | 522 kts | 46° |
| 2026-04-29 21:30 | -34.24171 | -56.83331 | 28319 ft | 521 kts | 46° |
| 2026-04-29 21:31 | -34.21828 | -56.79993 | 28640 ft | 521 kts | 46° |
| 2026-04-29 21:31 | -34.19454 | -56.76620 | 28972 ft | 521 kts | 46° |
| 2026-04-29 21:31 | -34.17103 | -56.73281 | 29294 ft | 520 kts | 46° |
| 2026-04-29 21:31 | -34.14759 | -56.69953 | 29607 ft | 520 kts | 46° |
| 2026-04-29 21:32 | -34.12422 | -56.66630 | 29917 ft | 520 kts | 46° |
| 2026-04-29 21:32 | -34.10081 | -56.63299 | 30203 ft | 520 kts | 46° |
| 2026-04-29 21:32 | -34.07745 | -56.59984 | 30476 ft | 519 kts | 46° |
| 2026-04-29 21:32 | -34.05406 | -56.56674 | 30745 ft | 518 kts | 46° |
| 2026-04-29 21:33 | -34.03065 | -56.53365 | 31029 ft | 517 kts | 46° |
| 2026-04-29 21:33 | -34.00703 | -56.50031 | 31309 ft | 517 kts | 46° |
| 2026-04-29 21:33 | -33.98370 | -56.46743 | 31594 ft | 516 kts | 46° |
| 2026-04-29 21:33 | -33.96039 | -56.43454 | 31887 ft | 515 kts | 46° |
| 2026-04-29 21:34 | -33.93712 | -56.40171 | 32169 ft | 514 kts | 46° |
| 2026-04-29 21:34 | -33.91396 | -56.36904 | 32448 ft | 513 kts | 46° |
| 2026-04-29 21:34 | -33.89077 | -56.33636 | 32728 ft | 513 kts | 46° |
| 2026-04-29 21:34 | -33.86765 | -56.30384 | 33000 ft | 512 kts | 46° |
| 2026-04-29 21:35 | -33.84438 | -56.27132 | 33278 ft | 511 kts | 45° |
| 2026-04-29 21:35 | -33.82114 | -56.23906 | 33541 ft | 510 kts | 45° |
| 2026-04-29 21:35 | -33.79789 | -56.20688 | 33795 ft | 510 kts | 45° |
| 2026-04-29 21:35 | -33.77465 | -56.17465 | 34028 ft | 509 kts | 45° |
| 2026-04-29 21:36 | -33.75153 | -56.14242 | 34237 ft | 509 kts | 45° |
| 2026-04-29 21:36 | -33.72848 | -56.11015 | 34438 ft | 509 kts | 45° |
| 2026-04-29 21:36 | -33.70545 | -56.07786 | 34632 ft | 509 kts | 45° |
| 2026-04-29 21:36 | -33.68245 | -56.04560 | 34820 ft | 509 kts | 45° |
| 2026-04-29 21:37 | -33.66719 | -56.02423 | 34923 ft | 509 kts | 45° |
| 2026-04-29 21:37 | -33.61331 | -55.94896 | 34966 ft | 508 kts | 45° |
| 2026-04-29 21:38 | -33.56725 | -55.88488 | 34967 ft | 507 kts | 45° |
| 2026-04-29 21:38 | -33.52116 | -55.82099 | 34972 ft | 506 kts | 45° |
| 2026-04-29 21:39 | -33.48256 | -55.76762 | 34970 ft | 506 kts | 44° |
| 2026-04-29 21:39 | -33.43652 | -55.70392 | 34970 ft | 505 kts | 44° |
| 2026-04-29 21:40 | -33.39054 | -55.64031 | 34973 ft | 505 kts | 44° |
| 2026-04-29 21:40 | -33.34457 | -55.57691 | 34978 ft | 504 kts | 44° |
| 2026-04-29 21:41 | -33.29852 | -55.51363 | 34982 ft | 504 kts | 44° |
| 2026-04-29 21:41 | -33.25257 | -55.45041 | 34981 ft | 503 kts | 44° |
| 2026-04-29 21:42 | -33.20635 | -55.38691 | 34980 ft | 503 kts | 44° |
| 2026-04-29 21:42 | -33.16042 | -55.32402 | 34988 ft | 502 kts | 44° |
| 2026-04-29 21:43 | -33.11445 | -55.26121 | 34990 ft | 502 kts | 44° |
| 2026-04-29 21:43 | -33.06855 | -55.19858 | 34989 ft | 501 kts | 43° |
| 2026-04-29 21:44 | -33.02266 | -55.13608 | 34993 ft | 501 kts | 43° |
| 2026-04-29 21:44 | -32.97678 | -55.07365 | 34988 ft | 501 kts | 43° |
| 2026-04-29 21:45 | -32.93079 | -55.01134 | 34991 ft | 500 kts | 43° |
| 2026-04-29 21:45 | -32.88485 | -54.94912 | 34985 ft | 500 kts | 43° |
| 2026-04-29 21:46 | -32.83895 | -54.88702 | 34983 ft | 500 kts | 43° |
| 2026-04-29 21:46 | -32.79297 | -54.82492 | 34981 ft | 500 kts | 43° |
| 2026-04-29 21:47 | -32.74707 | -54.76292 | 34982 ft | 500 kts | 43° |
| 2026-04-29 21:47 | -32.70079 | -54.70064 | 34975 ft | 500 kts | 43° |
| 2026-04-29 21:48 | -32.65477 | -54.63886 | 34981 ft | 499 kts | 42° |
| 2026-04-29 21:48 | -32.60878 | -54.57708 | 34989 ft | 499 kts | 42° |
| 2026-04-29 21:49 | -32.56280 | -54.51557 | 34995 ft | 499 kts | 42° |
| 2026-04-29 21:49 | -32.51679 | -54.45408 | 34983 ft | 498 kts | 42° |
| 2026-04-29 21:50 | -32.47082 | -54.39257 | 34977 ft | 498 kts | 42° |
| 2026-04-29 21:50 | -32.42483 | -54.33124 | 34963 ft | 498 kts | 42° |
| 2026-04-29 21:51 | -32.37875 | -54.27007 | 34958 ft | 498 kts | 41° |
| 2026-04-29 21:51 | -32.30971 | -54.17829 | 34955 ft | 498 kts | 42° |
| 2026-04-29 21:52 | -32.26427 | -54.11640 | 34956 ft | 499 kts | 43° |
| 2026-04-29 21:52 | -32.21894 | -54.05442 | 34965 ft | 498 kts | 42° |
| 2026-04-29 21:53 | -32.17341 | -53.99276 | 34973 ft | 498 kts | 42° |
| 2026-04-29 21:53 | -32.12774 | -53.93138 | 34986 ft | 498 kts | 42° |
| 2026-04-29 21:54 | -32.08212 | -53.86997 | 34991 ft | 498 kts | 41° |
| 2026-04-29 21:54 | -32.03646 | -53.80862 | 34989 ft | 497 kts | 41° |
| 2026-04-29 21:55 | -31.99054 | -53.74697 | 34989 ft | 497 kts | 41° |
| 2026-04-29 21:55 | -31.94490 | -53.68589 | 34995 ft | 496 kts | 41° |
| 2026-04-29 21:56 | -31.89923 | -53.62500 | 34993 ft | 496 kts | 41° |
| 2026-04-29 21:56 | -31.85355 | -53.56414 | 35001 ft | 496 kts | 41° |
| 2026-04-29 21:57 | -31.80792 | -53.50331 | 35002 ft | 496 kts | 41° |
| 2026-04-29 21:57 | -31.76225 | -53.44252 | 35002 ft | 496 kts | 41° |
| 2026-04-29 21:58 | -31.71657 | -53.38176 | 35002 ft | 496 kts | 40° |
| 2026-04-29 21:58 | -31.67087 | -53.32120 | 35002 ft | 496 kts | 40° |
| 2026-04-29 21:59 | -31.62503 | -53.26068 | 34999 ft | 496 kts | 40° |
| 2026-04-29 21:59 | -31.57929 | -53.20023 | 35003 ft | 496 kts | 40° |
| 2026-04-29 22:00 | -31.53350 | -53.13969 | 35000 ft | 496 kts | 40° |
| 2026-04-29 22:00 | -31.48765 | -53.07935 | 35007 ft | 496 kts | 40° |
| 2026-04-29 22:01 | -31.44166 | -53.01899 | 35002 ft | 496 kts | 39° |
| 2026-04-29 22:01 | -31.39543 | -52.95833 | 35018 ft | 496 kts | 39° |
| 2026-04-29 22:02 | -31.34950 | -52.89806 | 35010 ft | 496 kts | 39° |
| 2026-04-29 22:02 | -31.30352 | -52.83783 | 35006 ft | 496 kts | 39° |
| 2026-04-29 22:03 | -31.25746 | -52.77763 | 35008 ft | 497 kts | 39° |
| 2026-04-29 22:03 | -31.21140 | -52.71737 | 35014 ft | 497 kts | 39° |
| 2026-04-29 22:04 | -31.16527 | -52.65724 | 35015 ft | 497 kts | 39° |
| 2026-04-29 22:04 | -31.11901 | -52.59719 | 35012 ft | 497 kts | 39° |
| 2026-04-29 22:05 | -31.07272 | -52.53712 | 35012 ft | 497 kts | 38° |
| 2026-04-29 22:06 | -31.00328 | -52.44712 | 35011 ft | 498 kts | 38° |
| 2026-04-29 22:06 | -30.95689 | -52.38717 | 35017 ft | 498 kts | 38° |
| 2026-04-29 22:07 | -30.91049 | -52.32731 | 35026 ft | 498 kts | 38° |
| 2026-04-29 22:07 | -30.86389 | -52.26776 | 35023 ft | 497 kts | 37° |
| 2026-04-29 22:08 | -30.81669 | -52.20894 | 35019 ft | 496 kts | 37° |
| 2026-04-29 22:08 | -30.76939 | -52.15042 | 35024 ft | 496 kts | 37° |
| 2026-04-29 22:09 | -30.72222 | -52.09182 | 35029 ft | 497 kts | 37° |
| 2026-04-29 22:09 | -30.67510 | -52.03314 | 35034 ft | 497 kts | 37° |
| 2026-04-29 22:10 | -30.62789 | -51.97440 | 35033 ft | 497 kts | 37° |
| 2026-04-29 22:10 | -30.58870 | -51.92576 | 35033 ft | 497 kts | 37° |
| 2026-04-29 22:11 | -30.54116 | -51.86678 | 35031 ft | 497 kts | 37° |
| 2026-04-29 22:11 | -30.49388 | -51.80830 | 35030 ft | 497 kts | 36° |
| 2026-04-29 22:12 | -30.44651 | -51.74989 | 35039 ft | 497 kts | 36° |
| 2026-04-29 22:12 | -30.39987 | -51.69045 | 35040 ft | 500 kts | 38° |
| 2026-04-29 22:13 | -30.35412 | -51.62977 | 35048 ft | 500 kts | 39° |
| 2026-04-29 22:13 | -30.30831 | -51.56919 | 35043 ft | 500 kts | 38° |
| 2026-04-29 22:14 | -30.26216 | -51.50914 | 35050 ft | 499 kts | 38° |
| 2026-04-29 22:14 | -30.21581 | -51.44931 | 35049 ft | 499 kts | 38° |
| 2026-04-29 22:15 | -30.16958 | -51.38953 | 35053 ft | 499 kts | 38° |
| 2026-04-29 22:15 | -30.12338 | -51.32961 | 35062 ft | 499 kts | 38° |
| 2026-04-29 22:16 | -30.07715 | -51.26989 | 35064 ft | 499 kts | 38° |
| 2026-04-29 22:16 | -30.03065 | -51.20981 | 35061 ft | 498 kts | 38° |
| 2026-04-29 22:17 | -29.98441 | -51.15024 | 35061 ft | 498 kts | 38° |
| 2026-04-29 22:17 | -29.93821 | -51.09095 | 35060 ft | 497 kts | 38° |
| 2026-04-29 22:18 | -29.89162 | -51.03126 | 35061 ft | 497 kts | 38° |
| 2026-04-29 22:18 | -29.84534 | -50.97209 | 35064 ft | 496 kts | 38° |
| 2026-04-29 22:19 | -29.79919 | -50.91324 | 35061 ft | 496 kts | 38° |
| 2026-04-29 22:19 | -29.75292 | -50.85426 | 35062 ft | 495 kts | 37° |
| 2026-04-29 22:20 | -29.70640 | -50.79508 | 35056 ft | 495 kts | 37° |
| 2026-04-29 22:20 | -29.66023 | -50.73640 | 35056 ft | 495 kts | 38° |
| 2026-04-29 22:21 | -29.61405 | -50.67777 | 35058 ft | 495 kts | 37° |
| 2026-04-29 22:21 | -29.56780 | -50.61918 | 35061 ft | 495 kts | 37° |
| 2026-04-29 22:22 | -29.52156 | -50.56064 | 35065 ft | 494 kts | 37° |
| 2026-04-29 22:22 | -29.47478 | -50.50304 | 35062 ft | 492 kts | 36° |
| 2026-04-29 22:23 | -29.42719 | -50.44597 | 35076 ft | 492 kts | 36° |
| 2026-04-29 22:23 | -29.37993 | -50.38933 | 35078 ft | 492 kts | 36° |
| 2026-04-29 22:24 | -29.33282 | -50.33245 | 35074 ft | 492 kts | 36° |
| 2026-04-29 22:24 | -29.28574 | -50.27550 | 35080 ft | 492 kts | 36° |
| 2026-04-29 22:25 | -29.23868 | -50.21871 | 35076 ft | 491 kts | 36° |
| 2026-04-29 22:25 | -29.19159 | -50.16208 | 35081 ft | 491 kts | 36° |
| 2026-04-29 22:26 | -29.14454 | -50.10550 | 35074 ft | 491 kts | 36° |
| 2026-04-29 22:26 | -29.09751 | -50.04901 | 35076 ft | 490 kts | 36° |
| 2026-04-29 22:27 | -29.05043 | -49.99261 | 35076 ft | 490 kts | 36° |
| 2026-04-29 22:27 | -29.00334 | -49.93621 | 35069 ft | 489 kts | 36° |
| 2026-04-29 22:28 | -28.95604 | -49.87977 | 35066 ft | 490 kts | 36° |
| 2026-04-29 22:28 | -28.90876 | -49.82352 | 35081 ft | 491 kts | 36° |
| 2026-04-29 22:29 | -28.86982 | -49.77625 | 35079 ft | 493 kts | 37° |
| 2026-04-29 22:29 | -28.81629 | -49.70816 | 35077 ft | 494 kts | 38° |
| 2026-04-29 22:30 | -28.77064 | -49.64971 | 35072 ft | 493 kts | 38° |
| 2026-04-29 22:30 | -28.72471 | -49.59177 | 35069 ft | 492 kts | 37° |
| 2026-04-29 22:31 | -28.67864 | -49.53427 | 35074 ft | 491 kts | 37° |
| 2026-04-29 22:31 | -28.63257 | -49.47673 | 35068 ft | 492 kts | 37° |
| 2026-04-29 22:32 | -28.58658 | -49.41908 | 35068 ft | 492 kts | 37° |
| 2026-04-29 22:32 | -28.54057 | -49.36153 | 35073 ft | 491 kts | 37° |
| 2026-04-29 22:33 | -28.49424 | -49.30367 | 35063 ft | 491 kts | 37° |
| 2026-04-29 22:33 | -28.44818 | -49.24637 | 35058 ft | 491 kts | 37° |
| 2026-04-29 22:34 | -28.40208 | -49.18906 | 35053 ft | 491 kts | 37° |
| 2026-04-29 22:34 | -28.35606 | -49.13185 | 35055 ft | 491 kts | 37° |
| 2026-04-29 22:35 | -28.30995 | -49.07464 | 35046 ft | 491 kts | 37° |
| 2026-04-29 22:35 | -28.26388 | -49.01747 | 35057 ft | 490 kts | 37° |
| 2026-04-29 22:36 | -28.21775 | -48.95969 | 35053 ft | 492 kts | 37° |
| 2026-04-29 22:36 | -28.17189 | -48.90204 | 35059 ft | 492 kts | 37° |
| 2026-04-29 22:37 | -28.13378 | -48.85420 | 35058 ft | 492 kts | 38° |
| 2026-04-29 22:37 | -28.08799 | -48.79678 | 35061 ft | 491 kts | 38° |
| 2026-04-29 22:38 | -28.04206 | -48.73945 | 35060 ft | 491 kts | 38° |
| 2026-04-29 22:38 | -27.99646 | -48.68263 | 35054 ft | 491 kts | 38° |
| 2026-04-29 22:39 | -27.95055 | -48.62542 | 35039 ft | 491 kts | 37° |
| 2026-04-29 22:39 | -27.90462 | -48.56832 | 35023 ft | 491 kts | 38° |
| 2026-04-29 22:40 | -27.85871 | -48.51132 | 35011 ft | 491 kts | 37° |
| 2026-04-29 22:40 | -27.81271 | -48.45436 | 35018 ft | 491 kts | 37° |
| 2026-04-29 22:41 | -27.76637 | -48.39700 | 35023 ft | 491 kts | 37° |
| 2026-04-29 22:41 | -27.72038 | -48.33997 | 35027 ft | 491 kts | 37° |
| 2026-04-29 22:42 | -27.67436 | -48.28310 | 35034 ft | 491 kts | 37° |
| 2026-04-29 22:42 | -27.62824 | -48.22630 | 35039 ft | 491 kts | 37° |
| 2026-04-29 22:43 | -27.58222 | -48.16947 | 35045 ft | 491 kts | 37° |
| 2026-04-29 22:43 | -27.53615 | -48.11271 | 35048 ft | 491 kts | 37° |
| 2026-04-29 22:44 | -27.48998 | -48.05606 | 35047 ft | 490 kts | 37° |
| 2026-04-29 22:44 | -27.44382 | -47.99946 | 35045 ft | 490 kts | 37° |
| 2026-04-29 22:45 | -27.39764 | -47.94304 | 35043 ft | 490 kts | 37° |
| 2026-04-29 22:45 | -27.35149 | -47.88665 | 35043 ft | 490 kts | 37° |
| 2026-04-29 22:46 | -27.30519 | -47.83047 | 35044 ft | 490 kts | 37° |
| 2026-04-29 22:46 | -27.25884 | -47.77443 | 35038 ft | 489 kts | 37° |
| 2026-04-29 22:47 | -27.21251 | -47.71846 | 35034 ft | 489 kts | 37° |
| 2026-04-29 22:47 | -27.16610 | -47.66244 | 35028 ft | 489 kts | 37° |
| 2026-04-29 22:48 | -27.11981 | -47.60665 | 35025 ft | 489 kts | 37° |
| 2026-04-29 22:48 | -27.07339 | -47.55079 | 35030 ft | 489 kts | 37° |
| 2026-04-29 22:49 | -27.02697 | -47.49504 | 35031 ft | 489 kts | 37° |
| 2026-04-29 22:49 | -26.98066 | -47.43932 | 35039 ft | 488 kts | 37° |
| 2026-04-29 22:50 | -26.93400 | -47.38332 | 35036 ft | 488 kts | 37° |
| 2026-04-29 22:50 | -26.88762 | -47.32784 | 35037 ft | 487 kts | 37° |
| 2026-04-29 22:51 | -26.84134 | -47.27251 | 35038 ft | 487 kts | 37° |
| 2026-04-29 22:51 | -26.77185 | -47.18959 | 35036 ft | 486 kts | 37° |
| 2026-04-29 22:52 | -26.72557 | -47.13444 | 35034 ft | 486 kts | 37° |
| 2026-04-29 22:52 | -26.67931 | -47.07948 | 35030 ft | 486 kts | 37° |
| 2026-04-29 22:53 | -26.63301 | -47.02457 | 35026 ft | 485 kts | 37° |
| 2026-04-29 22:53 | -26.58661 | -46.96968 | 35030 ft | 485 kts | 37° |
| 2026-04-29 22:54 | -26.54013 | -46.91487 | 35033 ft | 486 kts | 37° |
| 2026-04-29 22:54 | -26.49354 | -46.86024 | 35023 ft | 486 kts | 37° |
| 2026-04-29 22:55 | -26.44690 | -46.80565 | 35022 ft | 486 kts | 37° |
| 2026-04-29 22:55 | -26.40014 | -46.75096 | 35017 ft | 487 kts | 37° |
| 2026-04-29 22:56 | -26.35346 | -46.69624 | 35023 ft | 488 kts | 37° |
| 2026-04-29 22:56 | -26.30673 | -46.64144 | 35018 ft | 488 kts | 37° |
| 2026-04-29 22:57 | -26.25954 | -46.58631 | 35026 ft | 488 kts | 37° |
| 2026-04-29 22:57 | -26.21263 | -46.53167 | 35032 ft | 488 kts | 38° |
| 2026-04-29 22:58 | -26.16582 | -46.47711 | 35035 ft | 488 kts | 38° |
| 2026-04-29 22:58 | -26.11885 | -46.42256 | 35037 ft | 487 kts | 38° |
| 2026-04-29 22:59 | -26.07197 | -46.36811 | 35041 ft | 487 kts | 38° |
| 2026-04-29 22:59 | -26.02510 | -46.31369 | 35051 ft | 487 kts | 38° |
| 2026-04-29 23:00 | -25.97818 | -46.25933 | 35049 ft | 487 kts | 38° |
| 2026-04-29 23:00 | -25.93133 | -46.20504 | 35040 ft | 487 kts | 38° |
| 2026-04-29 23:01 | -25.88436 | -46.15074 | 35041 ft | 487 kts | 38° |
| 2026-04-29 23:01 | -25.83743 | -46.09667 | 35041 ft | 487 kts | 38° |
| 2026-04-29 23:02 | -25.79048 | -46.04255 | 35040 ft | 487 kts | 38° |
| 2026-04-29 23:02 | -25.74360 | -45.98846 | 35035 ft | 486 kts | 38° |
| 2026-04-29 23:03 | -25.69666 | -45.93438 | 35036 ft | 486 kts | 38° |
| 2026-04-29 23:03 | -25.64966 | -45.88037 | 35038 ft | 486 kts | 38° |
| 2026-04-29 23:04 | -25.60239 | -45.82609 | 35037 ft | 486 kts | 38° |
| 2026-04-29 23:04 | -25.55538 | -45.77227 | 35030 ft | 486 kts | 38° |
| 2026-04-29 23:05 | -25.50837 | -45.71858 | 35037 ft | 486 kts | 38° |
| 2026-04-29 23:05 | -25.46135 | -45.66482 | 35032 ft | 486 kts | 38° |
| 2026-04-29 23:06 | -25.41435 | -45.61112 | 35034 ft | 486 kts | 38° |
| 2026-04-29 23:06 | -25.36728 | -45.55753 | 35034 ft | 485 kts | 38° |
| 2026-04-29 23:07 | -25.32031 | -45.50401 | 35036 ft | 485 kts | 38° |
| 2026-04-29 23:07 | -25.27342 | -45.45056 | 35036 ft | 484 kts | 38° |
| 2026-04-29 23:08 | -25.22653 | -45.39726 | 35041 ft | 483 kts | 38° |
| 2026-04-29 23:08 | -25.17965 | -45.34410 | 35047 ft | 483 kts | 39° |
| 2026-04-29 23:09 | -25.13282 | -45.29105 | 35045 ft | 482 kts | 39° |
| 2026-04-29 23:09 | -25.08610 | -45.23815 | 35047 ft | 481 kts | 39° |
| 2026-04-29 23:10 | -25.03946 | -45.18534 | 35050 ft | 480 kts | 39° |
| 2026-04-29 23:10 | -24.99291 | -45.13271 | 35051 ft | 479 kts | 39° |
| 2026-04-29 23:11 | -24.95391 | -45.08874 | 35051 ft | 479 kts | 39° |
| 2026-04-29 23:11 | -24.90743 | -45.03632 | 35050 ft | 478 kts | 39° |
| 2026-04-29 23:12 | -24.86096 | -44.98398 | 35046 ft | 477 kts | 39° |
| 2026-04-29 23:12 | -24.81455 | -44.93182 | 35043 ft | 477 kts | 39° |
| 2026-04-29 23:13 | -24.76821 | -44.87974 | 35045 ft | 476 kts | 39° |
| 2026-04-29 23:13 | -24.72178 | -44.82767 | 35043 ft | 476 kts | 39° |
| 2026-04-29 23:14 | -24.67513 | -44.77544 | 35040 ft | 476 kts | 39° |
| 2026-04-29 23:14 | -24.62869 | -44.72348 | 35038 ft | 476 kts | 39° |
| 2026-04-29 23:15 | -24.58231 | -44.67163 | 35040 ft | 476 kts | 39° |
| 2026-04-29 23:15 | -24.53588 | -44.61977 | 35039 ft | 476 kts | 39° |
| 2026-04-29 23:16 | -24.48739 | -44.57118 | 35037 ft | 466 kts | 27° |
| 2026-04-29 23:16 | -24.43112 | -44.53767 | 35038 ft | 459 kts | 20° |
| 2026-04-29 23:17 | -24.37380 | -44.50574 | 35033 ft | 459 kts | 20° |
| 2026-04-29 23:17 | -24.31687 | -44.47386 | 35032 ft | 460 kts | 21° |
| 2026-04-29 23:18 | -24.25992 | -44.44198 | 35034 ft | 460 kts | 21° |
| 2026-04-29 23:18 | -24.20294 | -44.41011 | 35034 ft | 460 kts | 20° |
| 2026-04-29 23:19 | -24.14585 | -44.37828 | 35040 ft | 460 kts | 20° |
| 2026-04-29 23:19 | -24.08875 | -44.34640 | 35035 ft | 461 kts | 20° |
| 2026-04-29 23:20 | -24.03150 | -44.31442 | 35029 ft | 462 kts | 20° |
| 2026-04-29 23:20 | -23.97414 | -44.28262 | 35030 ft | 462 kts | 20° |
| 2026-04-29 23:21 | -23.91898 | -44.24564 | 35028 ft | 475 kts | 35° |
| 2026-04-29 23:21 | -23.89567 | -44.21973 | 35035 ft | 483 kts | 46° |
| 2026-04-29 23:21 | -23.87655 | -44.18920 | 35038 ft | 491 kts | 57° |
| 2026-04-29 23:22 | -23.84592 | -44.12154 | 35034 ft | 492 kts | 55° |
| 2026-04-29 23:22 | -23.82670 | -44.09123 | 34754 ft | 483 kts | 44° |
| 2026-04-29 23:22 | -23.80240 | -44.06606 | 33768 ft | 480 kts | 30° |
| 2026-04-29 23:23 | -23.77388 | -44.04766 | 32779 ft | 475 kts | 18° |
| 2026-04-29 23:23 | -23.74291 | -44.03587 | 31846 ft | 469 kts | 7° |
| 2026-04-29 23:23 | -23.71081 | -44.03067 | 30970 ft | 464 kts | 358° |
| 2026-04-29 23:23 | -23.67845 | -44.02853 | 30046 ft | 467 kts | 358° |
| 2026-04-29 23:24 | -23.64596 | -44.02640 | 29001 ft | 469 kts | 358° |
| 2026-04-29 23:24 | -23.61347 | -44.02428 | 28492 ft | 461 kts | 358° |
| 2026-04-29 23:24 | -23.58182 | -44.02219 | 28115 ft | 452 kts | 358° |
| 2026-04-29 23:24 | -23.55068 | -44.02015 | 27588 ft | 446 kts | 358° |
| 2026-04-29 23:25 | -23.51987 | -44.01816 | 27025 ft | 441 kts | 358° |
| 2026-04-29 23:25 | -23.48939 | -44.01624 | 26459 ft | 437 kts | 358° |
| 2026-04-29 23:25 | -23.45918 | -44.01437 | 25901 ft | 433 kts | 358° |
| 2026-04-29 23:25 | -23.42925 | -44.01252 | 25338 ft | 429 kts | 358° |
| 2026-04-29 23:26 | -23.39950 | -44.01068 | 24809 ft | 426 kts | 358° |
| 2026-04-29 23:26 | -23.36967 | -44.00882 | 24268 ft | 422 kts | 359° |
| 2026-04-29 23:26 | -23.34044 | -44.00698 | 23741 ft | 419 kts | 358° |
| 2026-04-29 23:26 | -23.31153 | -44.00513 | 23199 ft | 414 kts | 358° |
| 2026-04-29 23:27 | -23.28285 | -44.00327 | 22607 ft | 410 kts | 358° |
| 2026-04-29 23:27 | -23.25450 | -44.00148 | 22000 ft | 407 kts | 358° |
| 2026-04-29 23:27 | -23.22628 | -43.99973 | 21388 ft | 404 kts | 359° |
| 2026-04-29 23:27 | -23.19826 | -43.99799 | 20795 ft | 402 kts | 359° |
| 2026-04-29 23:28 | -23.17044 | -43.99625 | 20223 ft | 399 kts | 359° |
| 2026-04-29 23:28 | -23.14281 | -43.99338 | 19652 ft | 401 kts | 8° |
| 2026-04-29 23:28 | -23.11661 | -43.98286 | 19239 ft | 405 kts | 24° |
| 2026-04-29 23:28 | -23.09355 | -43.96486 | 18867 ft | 411 kts | 34° |
| 2026-04-29 23:29 | -23.07127 | -43.94532 | 18641 ft | 412 kts | 34° |
| 2026-04-29 23:29 | -23.04898 | -43.92576 | 18410 ft | 412 kts | 35° |
| 2026-04-29 23:29 | -23.02673 | -43.90622 | 18172 ft | 410 kts | 35° |
| 2026-04-29 23:29 | -23.00459 | -43.88680 | 17909 ft | 409 kts | 35° |
| 2026-04-29 23:30 | -22.98251 | -43.86745 | 17657 ft | 407 kts | 35° |
| 2026-04-29 23:30 | -22.96051 | -43.84819 | 17405 ft | 405 kts | 35° |
| 2026-04-29 23:30 | -22.93862 | -43.82907 | 17156 ft | 403 kts | 35° |
| 2026-04-29 23:30 | -22.91684 | -43.81007 | 16904 ft | 401 kts | 35° |
| 2026-04-29 23:31 | -22.89511 | -43.79112 | 16651 ft | 398 kts | 36° |
| 2026-04-29 23:31 | -22.87379 | -43.77250 | 16275 ft | 392 kts | 36° |
| 2026-04-29 23:31 | -22.85264 | -43.75406 | 15811 ft | 388 kts | 36° |
| 2026-04-29 23:31 | -22.83236 | -43.73490 | 15324 ft | 387 kts | 44° |
| 2026-04-29 23:32 | -22.81568 | -43.71162 | 14848 ft | 387 kts | 56° |
| 2026-04-29 23:32 | -22.80411 | -43.68564 | 14341 ft | 389 kts | 69° |
| 2026-04-29 23:32 | -22.79697 | -43.65738 | 13825 ft | 389 kts | 75° |
| 2026-04-29 23:32 | -22.79048 | -43.62902 | 13254 ft | 387 kts | 75° |
| 2026-04-29 23:33 | -22.78814 | -43.61891 | 13099 ft | 385 kts | 74° |
| 2026-04-29 23:33 | -22.78163 | -43.59084 | 12524 ft | 384 kts | 75° |
| 2026-04-29 23:33 | -22.77508 | -43.56285 | 11998 ft | 381 kts | 75° |
| 2026-04-29 23:34 | -22.76856 | -43.53510 | 11462 ft | 379 kts | 75° |
| 2026-04-29 23:34 | -22.76206 | -43.50750 | 10930 ft | 378 kts | 75° |
| 2026-04-29 23:34 | -22.75569 | -43.48030 | 10745 ft | 365 kts | 75° |
| 2026-04-29 23:34 | -22.74959 | -43.45416 | 10614 ft | 351 kts | 75° |
| 2026-04-29 23:35 | -22.74371 | -43.42896 | 10503 ft | 339 kts | 75° |
| 2026-04-29 23:35 | -22.73800 | -43.40461 | 10383 ft | 327 kts | 75° |
| 2026-04-29 23:35 | -22.73248 | -43.38114 | 10265 ft | 316 kts | 75° |
| 2026-04-29 23:35 | -22.72717 | -43.35851 | 10113 ft | 305 kts | 75° |
| 2026-04-29 23:36 | -22.72202 | -43.33649 | 9896 ft | 298 kts | 76° |
| 2026-04-29 23:36 | -22.71693 | -43.31493 | 9572 ft | 294 kts | 73° |
| 2026-04-29 23:36 | -22.70806 | -43.29522 | 9205 ft | 291 kts | 57° |
| 2026-04-29 23:36 | -22.69874 | -43.27587 | 8822 ft | 290 kts | 73° |
| 2026-04-29 23:37 | -22.69411 | -43.25471 | 8447 ft | 288 kts | 78° |
| 2026-04-29 23:37 | -22.68999 | -43.23352 | 8079 ft | 287 kts | 78° |
| 2026-04-29 23:37 | -22.68598 | -43.21249 | 7719 ft | 285 kts | 78° |
| 2026-04-29 23:37 | -22.68202 | -43.19150 | 7370 ft | 283 kts | 78° |
| 2026-04-29 23:38 | -22.67813 | -43.17088 | 7186 ft | 274 kts | 78° |
| 2026-04-29 23:38 | -22.67437 | -43.15104 | 7067 ft | 263 kts | 78° |
| 2026-04-29 23:38 | -22.67076 | -43.13198 | 6912 ft | 254 kts | 78° |
| 2026-04-29 23:38 | -22.66723 | -43.11336 | 6659 ft | 251 kts | 78° |
| 2026-04-29 23:39 | -22.66455 | -43.09471 | 6351 ft | 249 kts | 92° |
| 2026-04-29 23:39 | -22.66905 | -43.07735 | 6151 ft | 235 kts | 121° |
| 2026-04-29 23:39 | -22.68015 | -43.06500 | 5786 ft | 229 kts | 150° |
| 2026-04-29 23:39 | -22.69502 | -43.05923 | 5374 ft | 227 kts | 165° |
| 2026-04-29 23:40 | -22.70535 | -43.05625 | 5084 ft | 227 kts | 166° |
| 2026-04-29 23:40 | -22.72119 | -43.05485 | 4482 ft | 231 kts | 187° |
| 2026-04-29 23:40 | -22.73655 | -43.05965 | 3882 ft | 231 kts | 207° |
| 2026-04-29 23:40 | -22.74925 | -43.07005 | 3301 ft | 229 kts | 229° |
| 2026-04-29 23:41 | -22.75739 | -43.08427 | 2900 ft | 220 kts | 248° |
| 2026-04-29 23:41 | -22.76186 | -43.09985 | 2343 ft | 212 kts | 255° |
| 2026-04-29 23:41 | -22.76564 | -43.11479 | 1944 ft | 198 kts | 254° |
| 2026-04-29 23:41 | -22.76916 | -43.12854 | 1669 ft | 182 kts | 254° |
| 2026-04-29 23:42 | -22.77247 | -43.14135 | 1428 ft | 172 kts | 254° |
| 2026-04-29 23:42 | -22.77561 | -43.15350 | 1234 ft | 163 kts | 253° |
| 2026-04-29 23:42 | -22.77861 | -43.16510 | 1018 ft | 158 kts | 253° |
| 2026-04-29 23:42 | -22.78155 | -43.17649 | 817 ft | 155 kts | 252° |
| 2026-04-29 23:43 | -22.78444 | -43.18770 | 624 ft | 153 kts | 252° |
| 2026-04-29 23:43 | -22.78727 | -43.19864 | 419 ft | 149 kts | 252° |
| 2026-04-29 23:43 | -22.79010 | -43.20958 | 248 ft | 149 kts | 253° |
| 2026-04-29 23:43 | -22.79282 | -43.22029 | 55 ft | 146 kts | 253° |
| 2026-04-29 23:44 | -22.79548 | -43.23029 | 38 ft | 125 kts | 255° |
| 2026-04-29 23:44 | -22.79732 | -43.23755 | 27 ft | 75 kts | 254° |
| 2026-04-29 23:44 | -22.79846 | -43.24183 | 30 ft | 54 kts | 254° |
| 2026-04-29 23:44 | -22.79943 | -43.24561 | 33 ft | 51 kts | 254° |
| 2026-04-29 23:45 | -22.80038 | -43.24927 | 27 ft | 50 kts | 255° |
| 2026-04-29 23:45 | -22.80125 | -43.25263 | 26 ft | 44 kts | 253° |
| 2026-04-29 23:45 | -22.80225 | -43.25491 | 27 ft | 25 kts | 222° |
| 2026-04-29 23:45 | -22.80295 | -43.25551 | 30 ft | 12 kts | 216° |
| 2026-04-29 23:46 | -22.80355 | -43.25599 | 27 ft | 10 kts | 216° |
| 2026-04-29 23:46 | -22.80426 | -43.25606 | 29 ft | 14 kts | 158° |
| 2026-04-29 23:46 | -22.80511 | -43.25545 | 31 ft | 14 kts | 147° |
| 2026-04-29 23:46 | -22.80605 | -43.25560 | 30 ft | 17 kts | 214° |
| 2026-04-29 23:47 | -22.80700 | -43.25633 | 28 ft | 16 kts | 216° |
| 2026-04-29 23:47 | -22.80789 | -43.25701 | 27 ft | 15 kts | 216° |
| 2026-04-29 23:47 | -22.80882 | -43.25776 | 24 ft | 17 kts | 219° |
| 2026-04-29 23:47 | -22.80979 | -43.25849 | 23 ft | 17 kts | 215° |
| 2026-04-29 23:48 | -22.81076 | -43.25918 | 23 ft | 16 kts | 198° |
| 2026-04-29 23:48 | -22.81165 | -43.25858 | 24 ft | 15 kts | 126° |
| 2026-04-29 23:48 | -22.81225 | -43.25767 | 23 ft | 15 kts | 126° |
| 2026-04-29 23:48 | -22.81282 | -43.25682 | 22 ft | 13 kts | 125° |
| 2026-04-29 23:49 | -22.81336 | -43.25600 | 21 ft | 13 kts | 126° |
| 2026-04-29 23:49 | -22.81387 | -43.25522 | 21 ft | 14 kts | 126° |
| 2026-04-29 23:49 | -22.81451 | -43.25426 | 21 ft | 16 kts | 126° |
| 2026-04-29 23:49 | -22.81516 | -43.25328 | 21 ft | 16 kts | 125° |
| 2026-04-29 23:50 | -22.81577 | -43.25235 | 21 ft | 15 kts | 126° |
| 2026-04-29 23:50 | -22.81636 | -43.25146 | 21 ft | 15 kts | 125° |
| 2026-04-29 23:50 | -22.81769 | -43.24946 | 21 ft | 18 kts | 126° |
| 2026-04-29 23:51 | -22.81843 | -43.24833 | 22 ft | 19 kts | 126° |
| 2026-04-29 23:51 | -22.81918 | -43.24723 | 21 ft | 18 kts | 126° |
| 2026-04-29 23:51 | -22.81932 | -43.24625 | 23 ft | 7 kts | 67° |
| 2026-04-29 23:51 | -22.81932 | -43.24591 | 21 ft | 3 kts | 133° |
| 2026-04-29 23:52 | -22.81942 | -43.24579 | 22 ft | 0 kts | 133° |
| 2026-04-29 23:52 | -22.81942 | -43.24576 | 23 ft | 1 kts | 110° |
| 2026-04-29 23:52 | -22.81931 | -43.24542 | 21 ft | 10 kts | 106° |
| 2026-04-29 23:52 | -22.81925 | -43.24485 | 22 ft | 5 kts | 57° |
| 2026-04-29 23:53 | -22.81914 | -43.24468 | 21 ft | 0 kts | 56° |